Terminal Aerodrome Forecast
Issued by NWS

Home | Current Version | Previous Version | Text Only | Print | Product List | Glossary Off
Versions: 1 2 3 4 5 6 7 8 9 10 11 12

000
FTUS45 KRIW 011100
TAFBPI
TAF
KBPI 011140Z 0112/0212 32007KT P6SM SCT040
     FM011500 32009KT P6SM VCSH SCT025 BKN040
     FM011800 31014G20KT P6SM VCSH BKN040
     FM020000 33011KT P6SM SCT040
     FM020600 33005KT P6SM SKC=

USA.gov is the U.S. government's official web portal to all federal, state and local government web resources and services.